createdAt,value
2022-11-20T00:01:08.869Z,17.52
2022-11-20T00:03:37.308Z,17.25
2022-11-20T00:06:07.317Z,18.10
2022-11-20T00:08:35.588Z,18.92
2022-11-20T00:11:06.238Z,20.80
2022-11-20T00:13:34.336Z,20.58
2022-11-20T00:16:03.555Z,17.52
2022-11-20T00:18:36.755Z,17.35
2022-11-20T00:21:14.709Z,20.50
2022-11-20T00:23:49.136Z,19.85
2022-11-20T00:26:32.211Z,18.75
2022-11-20T00:29:02.385Z,20.55
2022-11-20T00:31:36.773Z,19.05
2022-11-20T00:34:13.352Z,19.98
2022-11-20T00:36:58.313Z,19.38
2022-11-20T00:39:28.875Z,18.73
2022-11-20T00:41:57.283Z,21.35
2022-11-20T00:44:32.660Z,16.38
2022-11-20T00:47:12.095Z,17.42
2022-11-20T00:49:45.402Z,18.13
2022-11-20T00:52:21.035Z,22.13
2022-11-20T00:57:49.353Z,17.23
2022-11-20T01:00:19.476Z,19.73
2022-11-20T01:02:47.927Z,17.98
2022-11-20T01:05:17.673Z,19.38
2022-11-20T01:07:45.768Z,13.63
2022-11-20T01:10:16.503Z,23.58
2022-11-20T01:13:14.202Z,21.00
2022-11-20T01:15:45.962Z,16.63
2022-11-20T01:18:23.720Z,16.90
2022-11-20T01:20:56.739Z,18.17
2022-11-20T01:23:28.819Z,16.23
2022-11-20T01:26:02.441Z,17.50
2022-11-20T01:28:33.163Z,14.77
2022-11-20T01:31:02.216Z,17.65
2022-11-20T01:33:30.770Z,16.88
2022-11-20T01:36:07.960Z,21.02
2022-11-20T01:38:46.184Z,17.85
2022-11-20T01:41:35.636Z,17.73
2022-11-20T01:44:05.131Z,16.63
2022-11-20T01:46:39.132Z,18.25
2022-11-20T01:49:12.984Z,19.23
2022-11-20T01:51:57.409Z,16.77
2022-11-20T01:54:36.618Z,18.40
2022-11-20T01:57:11.818Z,16.92
2022-11-20T01:59:48.963Z,20.63
2022-11-20T02:02:24.257Z,24.02
2022-11-20T02:04:56.920Z,17.88
2022-11-20T02:07:26.974Z,16.10
2022-11-20T02:09:58.765Z,18.98
2022-11-20T02:12:44.709Z,20.50
2022-11-20T02:15:12.891Z,18.27
2022-11-20T02:17:40.903Z,17.88
2022-11-20T02:20:10.382Z,22.98
2022-11-20T02:22:46.102Z,21.00
2022-11-20T02:25:16.666Z,23.60
2022-11-20T02:27:45.183Z,20.13
2022-11-20T02:30:13.812Z,18.63
2022-11-20T02:32:41.939Z,20.08
2022-11-20T02:35:31.521Z,22.98
2022-11-20T02:38:03.403Z,22.15
2022-11-20T02:40:32.884Z,21.80
2022-11-20T02:43:00.918Z,27.45
2022-11-20T02:45:28.945Z,16.58
2022-11-20T02:47:56.917Z,17.15
2022-11-20T02:50:25.133Z,17.48
2022-11-20T02:52:53.028Z,22.17
2022-11-20T02:55:21.317Z,20.58
2022-11-20T02:57:50.679Z,22.77
2022-11-20T03:00:18.928Z,21.05
2022-11-20T03:02:46.964Z,17.77
2022-11-20T03:05:15.057Z,17.10
2022-11-20T03:07:43.046Z,27.70
2022-11-20T03:10:11.633Z,18.10
2022-11-20T03:12:39.577Z,18.45
2022-11-20T03:15:10.703Z,17.75
2022-11-20T03:17:38.719Z,20.08
2022-11-20T03:20:08.051Z,19.40
2022-11-20T03:22:36.072Z,16.08
2022-11-20T03:25:04.180Z,19.60
2022-11-20T03:27:34.716Z,18.20
2022-11-20T03:30:03.355Z,19.83
2022-11-20T03:32:32.673Z,21.58
2022-11-20T03:35:00.664Z,20.00
2022-11-20T03:37:28.680Z,17.50
2022-11-20T03:39:56.778Z,16.30
2022-11-20T03:42:42.304Z,17.85
2022-11-20T03:45:11.192Z,18.80
2022-11-20T03:47:41.256Z,18.17
2022-11-20T03:50:10.434Z,17.83
2022-11-20T03:52:38.423Z,16.63
2022-11-20T03:55:07.040Z,14.75
2022-11-20T03:57:35.604Z,15.73
2022-11-20T04:00:04.165Z,17.13
2022-11-20T04:02:32.652Z,16.30
2022-11-20T04:05:01.998Z,15.10
2022-11-20T04:07:29.982Z,15.73
2022-11-20T04:09:58.000Z,18.70
2022-11-20T04:12:26.149Z,15.98
2022-11-20T04:14:54.038Z,12.68
2022-11-20T04:17:22.013Z,16.48
2022-11-20T04:19:49.882Z,17.05
2022-11-20T04:22:19.192Z,14.88
2022-11-20T04:24:47.157Z,18.02
2022-11-20T04:27:15.216Z,18.05
2022-11-20T04:29:43.613Z,15.73
2022-11-20T04:32:11.773Z,22.85
2022-11-20T04:34:39.727Z,18.52
2022-11-20T04:37:07.755Z,18.67
2022-11-20T04:39:37.005Z,19.55
2022-11-20T04:42:22.845Z,17.25
2022-11-20T04:44:50.918Z,16.50
2022-11-20T04:47:18.829Z,20.27
2022-11-20T04:49:46.811Z,20.10
2022-11-20T04:52:15.398Z,20.17
2022-11-20T04:54:44.767Z,20.02
2022-11-20T04:57:14.872Z,13.85
2022-11-20T04:59:43.614Z,14.15
2022-11-20T05:02:12.637Z,14.82
2022-11-20T05:04:40.513Z,14.82
2022-11-20T05:07:08.473Z,13.95
2022-11-20T05:09:36.374Z,14.30
2022-11-20T05:12:06.024Z,15.10
2022-11-20T05:14:33.888Z,16.40
2022-11-20T05:17:01.994Z,17.70
2022-11-20T05:19:29.909Z,17.63
2022-11-20T05:21:57.809Z,14.30
2022-11-20T05:24:25.827Z,16.40
2022-11-20T05:26:53.862Z,16.00
2022-11-20T05:29:23.482Z,15.68
2022-11-20T05:31:51.486Z,15.60
2022-11-20T05:34:19.513Z,19.63
2022-11-20T05:36:47.355Z,15.50
2022-11-20T05:39:15.438Z,16.58
2022-11-20T05:41:43.399Z,16.08
2022-11-20T05:44:13.262Z,13.70
2022-11-20T05:46:42.492Z,18.55
2022-11-20T05:49:10.882Z,16.17
2022-11-20T05:51:38.988Z,15.98
2022-11-20T05:54:07.003Z,15.52
2022-11-20T05:56:34.978Z,19.77
2022-11-20T05:59:03.111Z,15.60
2022-11-20T06:01:31.064Z,20.02
2022-11-20T06:04:00.515Z,18.63
2022-11-20T06:06:28.607Z,16.70
2022-11-20T06:08:56.681Z,14.05
2022-11-20T06:11:24.775Z,14.38
2022-11-20T06:13:53.493Z,15.40
2022-11-20T06:16:22.793Z,13.70
2022-11-20T06:18:51.440Z,16.65
2022-11-20T06:21:22.690Z,15.73
2022-11-20T06:23:52.138Z,19.02
2022-11-20T06:26:23.569Z,14.10
2022-11-20T06:28:52.768Z,15.45
2022-11-20T06:31:22.672Z,17.92
2022-11-20T06:33:51.422Z,12.85
2022-11-20T06:36:23.538Z,15.18
2022-11-20T06:38:52.142Z,15.60
2022-11-20T06:41:21.888Z,15.48
2022-11-20T06:43:50.224Z,19.45
2022-11-20T06:46:20.291Z,15.48
2022-11-20T06:48:48.911Z,15.85
2022-11-20T06:51:17.603Z,11.75
2022-11-20T06:53:47.535Z,15.70
2022-11-20T06:56:15.792Z,16.30
2022-11-20T06:58:43.763Z,12.73
2022-11-20T07:01:14.510Z,15.10
2022-11-20T07:03:43.680Z,17.00
2022-11-20T07:06:12.286Z,15.70
2022-11-20T07:08:40.365Z,13.82
2022-11-20T07:11:10.252Z,20.88
2022-11-20T07:13:38.195Z,15.98
2022-11-20T07:16:09.153Z,15.63
2022-11-20T07:18:37.978Z,13.52
2022-11-20T07:21:08.079Z,15.07
2022-11-20T07:23:36.432Z,15.70
2022-11-20T07:26:05.883Z,14.95
2022-11-20T07:28:35.949Z,16.80
2022-11-20T07:31:05.799Z,12.75
2022-11-20T07:33:34.071Z,18.02
2022-11-20T07:36:02.570Z,14.73
2022-11-20T07:38:31.086Z,14.38
2022-11-20T07:41:02.451Z,18.80
2022-11-20T07:43:30.970Z,17.48
2022-11-20T07:46:02.103Z,13.43
2022-11-20T07:48:30.284Z,16.38
2022-11-20T07:50:59.053Z,18.85
2022-11-20T07:53:27.217Z,14.15
2022-11-20T07:55:55.161Z,15.45
2022-11-20T07:58:23.971Z,14.80
2022-11-20T08:00:52.143Z,13.75
2022-11-20T08:03:25.020Z,16.48
2022-11-20T08:05:53.892Z,14.85
2022-11-20T08:08:22.101Z,13.25
2022-11-20T08:10:50.218Z,16.35
2022-11-20T08:13:35.820Z,13.45
2022-11-20T08:16:03.839Z,13.80
2022-11-20T08:18:33.405Z,14.38
2022-11-20T08:21:05.276Z,11.85
2022-11-20T08:23:33.672Z,13.48
2022-11-20T08:26:01.655Z,12.73
2022-11-20T08:28:29.732Z,11.98
2022-11-20T08:31:00.889Z,16.02
2022-11-20T08:33:29.301Z,14.48
2022-11-20T08:36:02.537Z,17.75
2022-11-20T08:38:30.804Z,15.73
2022-11-20T08:41:17.395Z,14.27
2022-11-20T08:43:45.384Z,16.58
2022-11-20T08:46:13.707Z,16.10
2022-11-20T08:48:42.165Z,22.20
2022-11-20T08:51:12.017Z,14.65
2022-11-20T08:53:40.249Z,15.32
2022-11-20T08:56:08.994Z,13.95
2022-11-20T08:59:01.795Z,16.45
2022-11-20T09:01:25.953Z,18.42
2022-11-20T09:03:54.373Z,14.40
2022-11-20T09:06:23.892Z,15.30
2022-11-20T09:08:54.700Z,13.95
2022-11-20T09:11:23.054Z,19.13
2022-11-20T09:13:51.449Z,14.68
2022-11-20T09:16:19.523Z,14.40
2022-11-20T09:18:53.949Z,16.48
2022-11-20T09:21:31.458Z,16.73
2022-11-20T09:23:59.691Z,15.35
2022-11-20T09:26:27.579Z,17.58
2022-11-20T09:28:58.149Z,15.98
2022-11-20T09:31:27.591Z,17.92
2022-11-20T09:33:55.844Z,18.25
2022-11-20T09:36:23.812Z,17.30
2022-11-20T09:38:53.331Z,16.58
2022-11-20T09:41:38.370Z,17.50
2022-11-20T09:44:21.117Z,14.88
2022-11-20T09:47:01.632Z,15.93
2022-11-20T09:49:52.239Z,13.88
2022-11-20T09:52:36.984Z,19.88
2022-11-20T09:55:19.847Z,18.67
2022-11-20T09:58:02.911Z,15.00
2022-11-20T10:00:48.961Z,13.18
2022-11-20T10:06:16.954Z,19.23
2022-11-20T10:08:59.088Z,15.52
2022-11-20T10:11:47.857Z,17.27
2022-11-20T10:14:28.368Z,18.50
2022-11-20T10:17:09.609Z,17.90
2022-11-20T10:20:05.631Z,16.42
2022-11-20T10:22:53.901Z,13.98
2022-11-20T10:25:24.226Z,18.92
2022-11-20T10:28:17.631Z,16.10
2022-11-20T10:30:48.504Z,16.20
2022-11-20T10:33:21.740Z,17.52
2022-11-20T10:35:57.540Z,17.92
2022-11-20T10:38:42.589Z,15.38
2022-11-20T10:41:35.948Z,13.90
2022-11-20T10:44:43.661Z,17.77
2022-11-20T10:47:25.252Z,13.32
2022-11-20T10:50:22.461Z,14.38
2022-11-20T10:56:29.968Z,16.20
2022-11-20T11:02:11.434Z,16.02
2022-11-20T11:05:01.767Z,14.50
2022-11-20T11:07:43.535Z,14.45
2022-11-20T11:10:25.438Z,14.88
2022-11-20T11:12:54.406Z,15.18
2022-11-20T11:15:31.365Z,14.40
2022-11-20T11:18:00.957Z,15.55
2022-11-20T11:20:28.954Z,14.48
2022-11-20T11:22:59.016Z,12.63
2022-11-20T11:25:31.034Z,12.80
2022-11-20T11:28:13.050Z,14.00
2022-11-20T11:30:54.154Z,17.48
2022-11-20T11:33:41.720Z,16.80
2022-11-20T11:36:30.685Z,15.75
2022-11-20T11:39:36.583Z,14.50
2022-11-20T11:45:25.900Z,15.55
2022-11-20T11:48:04.906Z,11.98
2022-11-20T11:50:59.525Z,13.15
2022-11-20T11:53:36.177Z,13.10
2022-11-20T11:56:15.299Z,12.95
2022-11-20T11:58:52.884Z,14.93
2022-11-20T12:01:32.969Z,14.30
2022-11-20T12:04:07.619Z,12.55
2022-11-20T12:06:40.209Z,12.70
2022-11-20T12:09:13.899Z,13.88
2022-11-20T12:11:50.518Z,12.27
2022-11-20T12:14:24.998Z,11.35
2022-11-20T12:17:09.824Z,12.27
2022-11-20T12:19:57.464Z,12.52
2022-11-20T12:23:02.921Z,10.32
2022-11-20T12:26:00.771Z,11.27
2022-11-20T12:29:06.201Z,7.10
2022-11-20T12:32:07.436Z,11.60
2022-11-20T12:35:28.771Z,11.10
2022-11-20T12:38:34.101Z,8.32
2022-11-20T12:41:10.993Z,8.05
2022-11-20T12:44:06.144Z,8.90
2022-11-20T12:46:49.368Z,9.30
2022-11-20T12:49:40.034Z,10.27
2022-11-20T12:52:22.105Z,8.40
2022-11-20T12:55:13.163Z,9.57
2022-11-20T12:57:50.685Z,9.85
2022-11-20T13:00:21.949Z,7.03
2022-11-20T13:03:15.505Z,10.25
2022-11-20T13:05:55.232Z,8.15
2022-11-20T13:08:35.939Z,7.60
2022-11-20T13:11:28.544Z,9.02
2022-11-20T13:14:31.909Z,10.23
2022-11-20T13:17:48.582Z,9.02
2022-11-20T13:20:40.222Z,9.70
2022-11-20T13:23:50.418Z,6.18
2022-11-20T13:26:35.722Z,7.47
2022-11-20T13:29:24.505Z,7.78
2022-11-20T13:32:11.973Z,6.40
2022-11-20T13:34:43.355Z,9.38
2022-11-20T13:37:38.758Z,10.48
2022-11-20T13:40:41.366Z,11.55
2022-11-20T13:43:19.979Z,10.52
2022-11-20T13:45:58.045Z,9.52
2022-11-20T13:48:28.577Z,12.00
2022-11-20T13:51:08.624Z,10.48
2022-11-20T13:54:05.119Z,12.50
2022-11-20T13:56:49.465Z,10.45
2022-11-20T13:59:40.141Z,11.10
2022-11-20T14:02:34.998Z,11.18
2022-11-20T14:05:42.883Z,10.88
2022-11-20T14:08:41.494Z,8.38
2022-11-20T14:14:21.650Z,10.68
2022-11-20T14:17:01.615Z,10.85
2022-11-20T14:19:40.537Z,9.35
2022-11-20T14:22:24.117Z,9.43
2022-11-20T14:25:11.534Z,8.18
2022-11-20T14:27:54.889Z,8.68
2022-11-20T14:30:49.904Z,9.60
2022-11-20T14:33:21.153Z,9.80
2022-11-20T14:35:51.953Z,10.00
2022-11-20T14:38:26.073Z,10.52
2022-11-20T14:40:54.984Z,12.32
2022-11-20T14:43:26.399Z,12.90
2022-11-20T14:46:06.048Z,9.25
2022-11-20T14:48:49.433Z,9.15
2022-11-20T14:51:43.950Z,10.25
2022-11-20T14:54:34.520Z,10.95
2022-11-20T14:57:38.142Z,14.68
2022-11-20T15:00:11.120Z,13.75
2022-11-20T15:02:43.835Z,11.85
2022-11-20T15:05:16.594Z,12.18
2022-11-20T15:07:48.248Z,10.45
2022-11-20T15:10:25.432Z,11.90
2022-11-20T15:12:55.358Z,10.50
2022-11-20T15:15:30.316Z,11.40
2022-11-20T15:18:00.388Z,10.77
2022-11-20T15:20:34.304Z,12.70
2022-11-20T15:23:04.132Z,12.50
2022-11-20T15:25:33.658Z,12.60
2022-11-20T15:28:02.325Z,11.55
2022-11-20T15:30:31.576Z,13.10
2022-11-20T15:33:31.374Z,12.93
2022-11-20T15:36:35.651Z,12.00
2022-11-20T15:39:26.585Z,9.90
2022-11-20T15:42:21.853Z,14.68
2022-11-20T15:47:53.906Z,12.45
2022-11-20T15:50:45.460Z,15.45
2022-11-20T15:53:43.077Z,13.50
2022-11-20T15:56:20.268Z,13.40
2022-11-20T15:59:13.078Z,12.85
2022-11-20T16:02:02.285Z,12.63
2022-11-20T16:04:48.731Z,15.30
2022-11-20T16:07:27.015Z,17.35
2022-11-20T16:10:10.764Z,13.77
2022-11-20T16:12:57.882Z,17.10
2022-11-20T16:15:43.789Z,13.20
2022-11-20T16:18:13.511Z,19.25
2022-11-20T16:20:42.360Z,13.95
2022-11-20T16:23:26.442Z,15.60
2022-11-20T16:26:18.718Z,19.02
2022-11-20T16:29:16.774Z,18.20
2022-11-20T16:32:12.230Z,21.60
2022-11-20T16:38:27.355Z,16.73
2022-11-20T16:41:24.255Z,20.58
2022-11-20T16:44:20.021Z,20.30
2022-11-20T16:47:10.591Z,17.40
2022-11-20T16:50:16.185Z,18.92
2022-11-20T16:53:11.112Z,20.25
2022-11-20T16:55:59.038Z,18.05
2022-11-20T16:59:03.309Z,17.80
2022-11-20T17:01:35.964Z,15.93
2022-11-20T17:04:07.507Z,16.67
2022-11-20T17:06:37.579Z,21.52
2022-11-20T17:09:06.991Z,20.42
2022-11-20T17:11:57.280Z,26.23
2022-11-20T17:15:15.437Z,24.58
2022-11-20T17:18:17.728Z,17.15
2022-11-20T17:21:34.539Z,17.57
2022-11-20T17:24:46.782Z,25.20
2022-11-20T17:28:15.589Z,22.17
2022-11-20T17:34:13.653Z,23.50
2022-11-20T17:37:18.500Z,25.17
2022-11-20T17:39:52.588Z,27.67
2022-11-20T17:43:17.570Z,20.85
2022-11-20T17:49:22.755Z,28.23
2022-11-20T17:51:54.233Z,19.83
2022-11-20T17:54:22.984Z,20.50
2022-11-20T17:57:08.868Z,22.20
2022-11-20T17:59:41.148Z,24.33
2022-11-20T18:02:21.759Z,21.85
2022-11-20T18:08:29.186Z,20.42
2022-11-20T18:11:20.586Z,21.58
2022-11-20T18:18:26.098Z,18.17
2022-11-20T18:21:18.589Z,18.13
2022-11-20T18:23:57.937Z,19.05
2022-11-20T18:26:46.852Z,21.67
2022-11-20T18:29:27.297Z,18.10
2022-11-20T18:35:14.559Z,18.52
2022-11-20T18:38:09.650Z,20.80
2022-11-20T18:41:11.401Z,19.40
2022-11-20T18:43:58.134Z,18.60
2022-11-20T18:46:35.868Z,18.95
2022-11-20T18:49:03.816Z,23.60
2022-11-20T18:51:31.971Z,19.75
2022-11-20T18:54:01.417Z,29.05
2022-11-20T18:56:29.513Z,23.33
2022-11-20T18:59:21.526Z,20.88
2022-11-20T19:02:04.160Z,20.33
2022-11-20T19:04:53.831Z,21.13
2022-11-20T19:08:07.919Z,19.55
2022-11-20T19:10:59.207Z,20.02
2022-11-20T19:13:57.149Z,22.25
2022-11-20T19:16:29.874Z,22.55
2022-11-20T19:19:05.251Z,21.23
2022-11-20T19:21:39.205Z,22.25
2022-11-20T19:24:16.062Z,22.30
2022-11-20T19:26:57.671Z,24.23
2022-11-20T19:29:51.018Z,26.88
2022-11-20T19:32:19.157Z,24.73
2022-11-20T19:34:47.412Z,20.48
2022-11-20T19:37:15.499Z,26.05
2022-11-20T19:39:43.983Z,23.48
2022-11-20T19:42:13.556Z,27.00
2022-11-20T19:44:43.424Z,29.20
2022-11-20T19:47:19.563Z,25.13
2022-11-20T19:50:12.563Z,25.65
2022-11-20T19:52:59.079Z,21.88
2022-11-20T19:55:58.802Z,25.58
2022-11-20T20:01:46.010Z,20.05
2022-11-20T20:04:52.572Z,21.00
2022-11-20T20:07:36.746Z,28.15
2022-11-20T20:10:25.005Z,23.95
2022-11-20T20:13:02.805Z,22.73
2022-11-20T20:15:41.203Z,22.70
2022-11-20T20:18:28.528Z,24.05
2022-11-20T20:21:24.087Z,23.92
2022-11-20T20:23:55.426Z,25.40
2022-11-20T20:26:24.818Z,22.13
2022-11-20T20:28:52.919Z,22.00
2022-11-20T20:31:25.599Z,23.05
2022-11-20T20:34:06.186Z,24.33
2022-11-20T20:36:47.897Z,22.17
2022-11-20T20:39:37.660Z,24.30
2022-11-20T20:42:22.056Z,24.65
2022-11-20T20:45:15.035Z,25.05
2022-11-20T20:48:31.893Z,21.60
2022-11-20T20:51:18.787Z,29.10
2022-11-20T20:54:10.759Z,23.65
2022-11-20T20:57:24.278Z,21.92
2022-11-20T21:00:08.256Z,19.40
2022-11-20T21:03:03.719Z,19.75
2022-11-20T21:05:48.331Z,23.52
2022-11-20T21:08:40.313Z,21.25
2022-11-20T21:11:35.428Z,22.40
2022-11-20T21:14:03.507Z,20.42
2022-11-20T21:16:41.158Z,23.42
2022-11-20T21:19:09.229Z,20.58
2022-11-20T21:22:06.175Z,19.92
2022-11-20T21:24:53.683Z,20.30
2022-11-20T21:28:03.505Z,19.80
2022-11-20T21:30:41.299Z,21.42
2022-11-20T21:33:18.231Z,22.10
2022-11-20T21:36:11.337Z,23.13
2022-11-20T21:42:16.741Z,20.30
2022-11-20T21:45:30.773Z,20.55
2022-11-20T21:48:38.258Z,19.90
2022-11-20T21:51:19.938Z,20.48
2022-11-20T21:53:51.497Z,19.58
2022-11-20T21:56:20.968Z,24.52
2022-11-20T21:58:50.300Z,20.92
2022-11-20T22:01:21.329Z,25.08
2022-11-20T22:03:50.421Z,25.63
2022-11-20T22:06:18.908Z,24.63
2022-11-20T22:08:46.868Z,23.23
2022-11-20T22:11:24.635Z,23.85
2022-11-20T22:14:26.346Z,22.52
2022-11-20T22:20:50.406Z,26.05
2022-11-20T22:23:32.703Z,26.52
2022-11-20T22:26:38.651Z,27.05
2022-11-20T22:29:26.186Z,26.92
2022-11-20T22:35:18.532Z,25.80
2022-11-20T22:38:18.014Z,23.20
2022-11-20T22:41:14.707Z,25.77
2022-11-20T22:44:12.746Z,22.25
2022-11-20T22:47:00.194Z,27.15
2022-11-20T22:49:52.674Z,24.90
2022-11-20T22:52:22.463Z,23.92
2022-11-20T22:54:50.594Z,22.35
2022-11-20T22:57:18.558Z,21.52
2022-11-20T22:59:46.597Z,23.70
2022-11-20T23:02:16.291Z,26.48
2022-11-20T23:04:44.190Z,22.50
2022-11-20T23:07:12.197Z,25.10
2022-11-20T23:10:07.001Z,21.05
2022-11-20T23:12:41.071Z,22.90
2022-11-20T23:15:36.249Z,21.92
2022-11-20T23:18:20.386Z,23.88
2022-11-20T23:20:58.807Z,25.23
2022-11-20T23:23:59.366Z,28.73
2022-11-20T23:26:39.412Z,23.40
2022-11-20T23:29:15.210Z,24.10
2022-11-20T23:31:49.427Z,25.80
2022-11-20T23:37:11.701Z,32.70
2022-11-20T23:39:45.897Z,26.02
2022-11-20T23:42:14.625Z,23.25
2022-11-20T23:44:42.648Z,25.02
2022-11-20T23:47:10.877Z,25.90
2022-11-20T23:49:40.521Z,25.55
2022-11-20T23:52:08.801Z,27.88
2022-11-20T23:54:36.764Z,26.05
